sensor_id;sensor_type;location;lat;lon;timestamp;noise_LAeq;noise_LA_min;noise_LA_max;noise_LA01;noise_LA95
51665;Laerm;37751;52.408;12.536;2022-10-16T00:00:38;51.91;38.87;67.40;;
51665;Laerm;37751;52.408;12.536;2022-10-16T00:03:06;49.33;38.65;63.29;;
51665;Laerm;37751;52.408;12.536;2022-10-16T00:05:32;50.35;38.10;66.97;;
51665;Laerm;37751;52.408;12.536;2022-10-16T00:07:59;57.02;40.70;73.27;;
51665;Laerm;37751;52.408;12.536;2022-10-16T00:10:25;55.03;42.26;66.50;;
51665;Laerm;37751;52.408;12.536;2022-10-16T00:12:52;55.41;36.79;69.27;;
51665;Laerm;37751;52.408;12.536;2022-10-16T00:15:18;52.96;36.74;68.80;;
51665;Laerm;37751;52.408;12.536;2022-10-16T00:17:45;53.75;40.09;67.69;;
51665;Laerm;37751;52.408;12.536;2022-10-16T00:20:11;53.98;41.37;66.93;;
51665;Laerm;37751;52.408;12.536;2022-10-16T00:22:37;54.49;42.78;69.01;;
51665;Laerm;37751;52.408;12.536;2022-10-16T00:25:04;46.46;37.61;59.92;;
51665;Laerm;37751;52.408;12.536;2022-10-16T00:27:30;52.59;42.04;66.38;;
51665;Laerm;37751;52.408;12.536;2022-10-16T00:29:57;52.57;40.52;66.26;;
51665;Laerm;37751;52.408;12.536;2022-10-16T00:32:24;51.59;43.93;64.94;;
51665;Laerm;37751;52.408;12.536;2022-10-16T00:34:51;54.28;43.05;66.42;;
51665;Laerm;37751;52.408;12.536;2022-10-16T00:37:20;51.53;40.19;63.72;;
51665;Laerm;37751;52.408;12.536;2022-10-16T00:39:47;48.88;37.18;62.05;;
51665;Laerm;37751;52.408;12.536;2022-10-16T00:42:18;53.15;38.25;66.31;;
51665;Laerm;37751;52.408;12.536;2022-10-16T00:44:53;46.63;35.58;61.89;;
51665;Laerm;37751;52.408;12.536;2022-10-16T00:47:36;45.33;36.20;57.98;;
51665;Laerm;37751;52.408;12.536;2022-10-16T00:50:09;48.95;36.73;61.26;;
51665;Laerm;37751;52.408;12.536;2022-10-16T00:52:39;47.10;35.52;64.62;;
51665;Laerm;37751;52.408;12.536;2022-10-16T00:55:08;50.95;37.18;66.46;;
51665;Laerm;37751;52.408;12.536;2022-10-16T00:57:36;47.95;36.73;62.19;;
51665;Laerm;37751;52.408;12.536;2022-10-16T01:00:06;51.72;39.58;65.34;;
51665;Laerm;37751;52.408;12.536;2022-10-16T01:02:32;53.84;42.84;70.29;;
51665;Laerm;37751;52.408;12.536;2022-10-16T01:04:59;54.97;38.04;71.15;;
51665;Laerm;37751;52.408;12.536;2022-10-16T01:10:27;53.70;43.42;67.35;;
51665;Laerm;37751;52.408;12.536;2022-10-16T01:13:07;47.63;36.87;61.26;;
51665;Laerm;37751;52.408;12.536;2022-10-16T01:15:40;50.02;38.39;65.00;;
51665;Laerm;37751;52.408;12.536;2022-10-16T01:20:58;50.00;37.85;64.96;;
51665;Laerm;37751;52.408;12.536;2022-10-16T01:29:26;50.34;37.71;65.75;;
51665;Laerm;37751;52.408;12.536;2022-10-16T01:32:00;51.45;37.02;66.94;;
51665;Laerm;37751;52.408;12.536;2022-10-16T01:34:35;46.76;35.07;65.38;;
51665;Laerm;37751;52.408;12.536;2022-10-16T01:37:09;48.03;37.48;64.08;;
51665;Laerm;37751;52.408;12.536;2022-10-16T01:39:39;47.60;37.75;64.13;;
51665;Laerm;37751;52.408;12.536;2022-10-16T01:42:11;50.63;38.18;65.45;;
51665;Laerm;37751;52.408;12.536;2022-10-16T01:44:40;54.28;38.56;68.28;;
51665;Laerm;37751;52.408;12.536;2022-10-16T01:47:09;53.64;39.43;64.88;;
51665;Laerm;37751;52.408;12.536;2022-10-16T01:49:38;46.99;37.18;62.27;;
51665;Laerm;37751;52.408;12.536;2022-10-16T01:52:11;52.30;39.88;67.32;;
51665;Laerm;37751;52.408;12.536;2022-10-16T01:54:42;48.69;36.12;66.10;;
51665;Laerm;37751;52.408;12.536;2022-10-16T01:57:10;50.88;40.32;66.22;;
51665;Laerm;37751;52.408;12.536;2022-10-16T01:59:42;51.43;39.56;69.41;;
51665;Laerm;37751;52.408;12.536;2022-10-16T02:02:10;45.01;37.27;56.17;;
51665;Laerm;37751;52.408;12.536;2022-10-16T02:04:47;45.42;37.62;58.65;;
51665;Laerm;37751;52.408;12.536;2022-10-16T02:07:15;52.55;38.23;68.19;;
51665;Laerm;37751;52.408;12.536;2022-10-16T02:09:42;45.56;37.44;61.18;;
51665;Laerm;37751;52.408;12.536;2022-10-16T02:12:14;52.25;39.18;68.98;;
51665;Laerm;37751;52.408;12.536;2022-10-16T02:14:41;47.32;37.91;60.84;;
51665;Laerm;37751;52.408;12.536;2022-10-16T02:17:14;46.98;37.88;62.65;;
51665;Laerm;37751;52.408;12.536;2022-10-16T02:19:41;48.98;37.63;63.62;;
51665;Laerm;37751;52.408;12.536;2022-10-16T02:22:10;50.89;38.88;65.54;;
51665;Laerm;37751;52.408;12.536;2022-10-16T02:24:51;58.29;40.08;74.04;;
51665;Laerm;37751;52.408;12.536;2022-10-16T02:27:32;50.84;39.88;67.30;;
51665;Laerm;37751;52.408;12.536;2022-10-16T02:30:06;48.85;37.91;60.21;;
51665;Laerm;37751;52.408;12.536;2022-10-16T02:32:37;48.74;37.92;65.84;;
51665;Laerm;37751;52.408;12.536;2022-10-16T02:35:06;55.20;37.54;71.14;;
51665;Laerm;37751;52.408;12.536;2022-10-16T02:37:33;54.94;44.72;68.30;;
51665;Laerm;37751;52.408;12.536;2022-10-16T02:40:00;50.50;39.67;63.64;;
51665;Laerm;37751;52.408;12.536;2022-10-16T02:42:35;52.11;38.81;66.18;;
51665;Laerm;37751;52.408;12.536;2022-10-16T02:45:02;52.64;41.87;69.01;;
51665;Laerm;37751;52.408;12.536;2022-10-16T02:47:29;58.15;40.96;72.34;;
51665;Laerm;37751;52.408;12.536;2022-10-16T02:49:56;49.66;39.38;64.12;;
51665;Laerm;37751;52.408;12.536;2022-10-16T02:52:22;54.29;41.32;74.27;;
51665;Laerm;37751;52.408;12.536;2022-10-16T02:54:49;55.14;37.46;69.36;;
51665;Laerm;37751;52.408;12.536;2022-10-16T02:57:15;52.75;40.14;64.19;;
51665;Laerm;37751;52.408;12.536;2022-10-16T02:59:42;53.25;40.14;69.03;;
51665;Laerm;37751;52.408;12.536;2022-10-16T03:02:08;53.27;36.71;66.47;;
51665;Laerm;37751;52.408;12.536;2022-10-16T03:04:35;54.81;36.93;69.88;;
51665;Laerm;37751;52.408;12.536;2022-10-16T03:07:02;52.27;34.00;68.23;;
51665;Laerm;37751;52.408;12.536;2022-10-16T03:09:28;56.42;44.66;69.35;;
51665;Laerm;37751;52.408;12.536;2022-10-16T03:11:55;56.18;41.06;67.86;;
51665;Laerm;37751;52.408;12.536;2022-10-16T03:14:21;52.22;41.25;65.35;;
51665;Laerm;37751;52.408;12.536;2022-10-16T03:16:47;52.85;39.45;67.51;;
51665;Laerm;37751;52.408;12.536;2022-10-16T03:19:16;56.52;39.84;70.66;;
51665;Laerm;37751;52.408;12.536;2022-10-16T03:21:42;55.37;40.11;76.06;;
51665;Laerm;37751;52.408;12.536;2022-10-16T03:24:08;56.89;43.22;78.48;;
51665;Laerm;37751;52.408;12.536;2022-10-16T03:26:35;53.64;40.23;68.82;;
51665;Laerm;37751;52.408;12.536;2022-10-16T03:29:02;54.23;38.10;68.41;;
51665;Laerm;37751;52.408;12.536;2022-10-16T03:31:29;55.06;39.50;65.72;;
51665;Laerm;37751;52.408;12.536;2022-10-16T03:33:56;54.75;40.10;69.87;;
51665;Laerm;37751;52.408;12.536;2022-10-16T03:36:34;54.74;41.89;66.47;;
51665;Laerm;37751;52.408;12.536;2022-10-16T03:39:01;52.76;38.85;70.46;;
51665;Laerm;37751;52.408;12.536;2022-10-16T03:41:27;52.88;41.32;66.07;;
51665;Laerm;37751;52.408;12.536;2022-10-16T03:43:54;55.76;45.16;67.49;;
51665;Laerm;37751;52.408;12.536;2022-10-16T03:46:20;53.28;38.82;65.55;;
51665;Laerm;37751;52.408;12.536;2022-10-16T03:48:46;60.55;38.70;82.73;;
51665;Laerm;37751;52.408;12.536;2022-10-16T03:51:13;49.64;37.92;61.48;;
51665;Laerm;37751;52.408;12.536;2022-10-16T03:53:39;52.41;37.90;68.48;;
51665;Laerm;37751;52.408;12.536;2022-10-16T03:56:06;53.84;44.51;67.14;;
51665;Laerm;37751;52.408;12.536;2022-10-16T03:58:32;48.88;35.47;65.54;;
51665;Laerm;37751;52.408;12.536;2022-10-16T04:00:59;56.45;42.49;69.60;;
51665;Laerm;37751;52.408;12.536;2022-10-16T04:03:25;52.68;43.64;64.92;;
51665;Laerm;37751;52.408;12.536;2022-10-16T04:05:52;54.08;42.60;68.42;;
51665;Laerm;37751;52.408;12.536;2022-10-16T04:08:18;53.47;39.35;66.39;;
51665;Laerm;37751;52.408;12.536;2022-10-16T04:10:45;53.64;40.01;67.41;;
51665;Laerm;37751;52.408;12.536;2022-10-16T04:13:12;53.40;42.20;74.46;;
51665;Laerm;37751;52.408;12.536;2022-10-16T04:15:39;52.95;39.90;63.51;;
51665;Laerm;37751;52.408;12.536;2022-10-16T04:18:05;51.42;39.05;66.57;;
51665;Laerm;37751;52.408;12.536;2022-10-16T04:20:32;54.30;40.62;68.42;;
51665;Laerm;37751;52.408;12.536;2022-10-16T04:22:59;49.98;40.19;70.96;;
51665;Laerm;37751;52.408;12.536;2022-10-16T04:25:26;54.42;40.66;66.17;;
51665;Laerm;37751;52.408;12.536;2022-10-16T04:27:53;54.52;40.26;65.58;;
51665;Laerm;37751;52.408;12.536;2022-10-16T04:30:21;53.50;40.85;66.40;;
51665;Laerm;37751;52.408;12.536;2022-10-16T04:32:48;53.54;38.19;71.11;;
51665;Laerm;37751;52.408;12.536;2022-10-16T04:35:17;55.44;37.57;68.79;;
51665;Laerm;37751;52.408;12.536;2022-10-16T04:37:44;53.56;38.22;66.34;;
51665;Laerm;37751;52.408;12.536;2022-10-16T04:40:10;54.79;39.52;70.62;;
51665;Laerm;37751;52.408;12.536;2022-10-16T04:42:37;51.80;37.81;65.78;;
51665;Laerm;37751;52.408;12.536;2022-10-16T04:45:05;53.48;35.87;65.64;;
51665;Laerm;37751;52.408;12.536;2022-10-16T04:47:31;53.52;39.25;65.09;;
51665;Laerm;37751;52.408;12.536;2022-10-16T04:49:58;54.87;39.96;68.19;;
51665;Laerm;37751;52.408;12.536;2022-10-16T04:52:27;52.72;42.12;66.14;;
51665;Laerm;37751;52.408;12.536;2022-10-16T04:54:53;47.65;37.99;58.38;;
51665;Laerm;37751;52.408;12.536;2022-10-16T04:57:20;52.61;40.82;63.91;;
51665;Laerm;37751;52.408;12.536;2022-10-16T04:59:46;52.37;36.99;66.65;;
51665;Laerm;37751;52.408;12.536;2022-10-16T05:02:13;53.72;40.64;65.49;;
51665;Laerm;37751;52.408;12.536;2022-10-16T05:04:39;50.70;39.34;64.61;;
51665;Laerm;37751;52.408;12.536;2022-10-16T05:07:05;52.14;41.00;67.84;;
51665;Laerm;37751;52.408;12.536;2022-10-16T05:09:32;55.31;43.42;67.70;;
51665;Laerm;37751;52.408;12.536;2022-10-16T05:11:58;53.36;40.67;63.37;;
51665;Laerm;37751;52.408;12.536;2022-10-16T05:14:24;53.60;42.55;66.73;;
51665;Laerm;37751;52.408;12.536;2022-10-16T05:16:51;52.57;42.03;63.24;;
51665;Laerm;37751;52.408;12.536;2022-10-16T05:19:18;49.96;42.16;62.28;;
51665;Laerm;37751;52.408;12.536;2022-10-16T05:21:53;55.14;41.50;66.31;;
51665;Laerm;37751;52.408;12.536;2022-10-16T05:24:20;57.56;43.45;68.74;;
51665;Laerm;37751;52.408;12.536;2022-10-16T05:26:46;54.30;43.17;69.00;;
51665;Laerm;37751;52.408;12.536;2022-10-16T05:29:14;53.39;41.54;64.58;;
51665;Laerm;37751;52.408;12.536;2022-10-16T05:31:40;55.41;44.80;70.19;;
51665;Laerm;37751;52.408;12.536;2022-10-16T05:34:07;53.61;44.98;67.52;;
51665;Laerm;37751;52.408;12.536;2022-10-16T05:36:33;53.78;44.97;65.98;;
51665;Laerm;37751;52.408;12.536;2022-10-16T05:39:00;55.54;44.21;69.83;;
51665;Laerm;37751;52.408;12.536;2022-10-16T05:41:26;53.90;45.97;65.01;;
51665;Laerm;37751;52.408;12.536;2022-10-16T05:43:53;53.85;44.98;66.37;;
51665;Laerm;37751;52.408;12.536;2022-10-16T05:46:20;59.35;44.75;80.64;;
51665;Laerm;37751;52.408;12.536;2022-10-16T05:48:46;79.08;46.24;97.66;;
51665;Laerm;37751;52.408;12.536;2022-10-16T05:51:14;55.29;43.69;65.96;;
51665;Laerm;37751;52.408;12.536;2022-10-16T05:53:42;52.85;42.06;63.54;;
51665;Laerm;37751;52.408;12.536;2022-10-16T05:56:11;56.58;42.50;71.31;;
51665;Laerm;37751;52.408;12.536;2022-10-16T05:58:39;56.77;47.44;69.66;;
51665;Laerm;37751;52.408;12.536;2022-10-16T06:01:13;54.49;41.63;70.12;;
51665;Laerm;37751;52.408;12.536;2022-10-16T06:03:40;53.80;44.08;76.04;;
51665;Laerm;37751;52.408;12.536;2022-10-16T06:06:11;53.71;42.90;65.69;;
51665;Laerm;37751;52.408;12.536;2022-10-16T06:08:39;54.41;41.67;67.11;;
51665;Laerm;37751;52.408;12.536;2022-10-16T06:11:09;55.72;43.81;69.15;;
51665;Laerm;37751;52.408;12.536;2022-10-16T06:13:36;56.14;44.47;72.59;;
51665;Laerm;37751;52.408;12.536;2022-10-16T06:16:06;56.59;46.25;67.68;;
51665;Laerm;37751;52.408;12.536;2022-10-16T06:18:32;54.46;41.46;76.83;;
51665;Laerm;37751;52.408;12.536;2022-10-16T06:20:59;55.54;43.22;73.18;;
51665;Laerm;37751;52.408;12.536;2022-10-16T06:23:28;68.30;43.89;84.49;;
51665;Laerm;37751;52.408;12.536;2022-10-16T06:26:04;57.58;46.28;68.92;;
51665;Laerm;37751;52.408;12.536;2022-10-16T06:28:30;54.90;44.96;67.12;;
51665;Laerm;37751;52.408;12.536;2022-10-16T06:31:00;56.34;45.10;68.23;;
51665;Laerm;37751;52.408;12.536;2022-10-16T06:33:33;57.33;43.56;76.11;;
51665;Laerm;37751;52.408;12.536;2022-10-16T06:36:01;54.13;44.59;65.30;;
51665;Laerm;37751;52.408;12.536;2022-10-16T06:38:28;55.93;43.59;67.89;;
51665;Laerm;37751;52.408;12.536;2022-10-16T06:40:55;60.62;44.63;80.40;;
51665;Laerm;37751;52.408;12.536;2022-10-16T06:43:21;55.29;43.67;66.25;;
51665;Laerm;37751;52.408;12.536;2022-10-16T06:45:52;57.59;47.05;81.74;;
51665;Laerm;37751;52.408;12.536;2022-10-16T06:48:19;58.31;45.06;70.92;;
51665;Laerm;37751;52.408;12.536;2022-10-16T06:53:31;56.25;44.71;69.58;;
51665;Laerm;37751;52.408;12.536;2022-10-16T06:56:11;57.29;46.09;71.49;;
51665;Laerm;37751;52.408;12.536;2022-10-16T06:58:38;59.44;48.58;72.19;;
51665;Laerm;37751;52.408;12.536;2022-10-16T07:01:06;57.17;47.42;67.05;;
51665;Laerm;37751;52.408;12.536;2022-10-16T07:03:33;58.74;44.88;72.30;;
51665;Laerm;37751;52.408;12.536;2022-10-16T07:06:04;57.90;45.67;71.64;;
51665;Laerm;37751;52.408;12.536;2022-10-16T07:08:35;56.66;45.84;66.59;;
51665;Laerm;37751;52.408;12.536;2022-10-16T07:11:04;55.49;44.48;71.15;;
51665;Laerm;37751;52.408;12.536;2022-10-16T07:13:33;55.59;45.02;69.14;;
51665;Laerm;37751;52.408;12.536;2022-10-16T07:16:07;56.60;46.68;68.51;;
51665;Laerm;37751;52.408;12.536;2022-10-16T07:18:34;56.80;42.79;68.35;;
51665;Laerm;37751;52.408;12.536;2022-10-16T07:21:10;61.92;44.73;82.82;;
51665;Laerm;37751;52.408;12.536;2022-10-16T07:23:37;58.24;47.02;67.69;;
51665;Laerm;37751;52.408;12.536;2022-10-16T07:26:07;57.55;42.66;71.83;;
51665;Laerm;37751;52.408;12.536;2022-10-16T07:28:33;60.61;44.29;76.94;;
51665;Laerm;37751;52.408;12.536;2022-10-16T07:31:05;59.61;45.40;70.76;;
51665;Laerm;37751;52.408;12.536;2022-10-16T07:33:34;59.68;48.30;71.45;;
51665;Laerm;37751;52.408;12.536;2022-10-16T07:36:01;72.46;46.76;92.90;;
51665;Laerm;37751;52.408;12.536;2022-10-16T07:38:28;59.60;46.46;78.01;;
51665;Laerm;37751;52.408;12.536;2022-10-16T07:41:05;61.33;49.55;75.43;;
51665;Laerm;37751;52.408;12.536;2022-10-16T07:43:33;58.27;47.48;68.24;;
51665;Laerm;37751;52.408;12.536;2022-10-16T07:46:00;58.91;47.64;69.10;;
51665;Laerm;37751;52.408;12.536;2022-10-16T07:48:33;63.20;48.58;82.34;;
51665;Laerm;37751;52.408;12.536;2022-10-16T07:51:04;60.26;49.42;70.66;;
51665;Laerm;37751;52.408;12.536;2022-10-16T07:53:31;59.42;49.40;70.04;;
51665;Laerm;37751;52.408;12.536;2022-10-16T07:56:03;60.40;48.66;74.09;;
51665;Laerm;37751;52.408;12.536;2022-10-16T07:58:31;58.64;48.45;70.44;;
51665;Laerm;37751;52.408;12.536;2022-10-16T08:00:58;60.05;47.01;69.40;;
51665;Laerm;37751;52.408;12.536;2022-10-16T08:03:25;72.22;47.15;95.41;;
51665;Laerm;37751;52.408;12.536;2022-10-16T08:05:51;56.67;45.22;70.70;;
51665;Laerm;37751;52.408;12.536;2022-10-16T08:08:18;57.21;44.09;69.07;;
51665;Laerm;37751;52.408;12.536;2022-10-16T08:10:45;61.93;48.99;74.03;;
51665;Laerm;37751;52.408;12.536;2022-10-16T08:13:11;58.23;44.38;70.28;;
51665;Laerm;37751;52.408;12.536;2022-10-16T08:15:42;58.94;47.72;78.26;;
51665;Laerm;37751;52.408;12.536;2022-10-16T08:18:10;72.89;46.00;94.42;;
51665;Laerm;37751;52.408;12.536;2022-10-16T08:20:36;60.88;47.66;73.23;;
51665;Laerm;37751;52.408;12.536;2022-10-16T08:23:03;60.45;49.07;71.44;;
51665;Laerm;37751;52.408;12.536;2022-10-16T08:25:30;57.63;46.26;66.61;;
51665;Laerm;37751;52.408;12.536;2022-10-16T08:27:57;60.41;48.71;75.11;;
51665;Laerm;37751;52.408;12.536;2022-10-16T08:30:23;58.74;47.49;73.33;;
51665;Laerm;37751;52.408;12.536;2022-10-16T08:32:50;60.80;48.54;75.26;;
51665;Laerm;37751;52.408;12.536;2022-10-16T08:35:16;59.74;50.12;69.48;;
51665;Laerm;37751;52.408;12.536;2022-10-16T08:37:43;57.23;45.20;66.13;;
51665;Laerm;37751;52.408;12.536;2022-10-16T08:40:30;60.54;45.28;72.22;;
51665;Laerm;37751;52.408;12.536;2022-10-16T08:48:37;60.88;48.60;72.18;;
51665;Laerm;37751;52.408;12.536;2022-10-16T08:51:08;59.68;47.61;70.49;;
51665;Laerm;37751;52.408;12.536;2022-10-16T08:53:46;59.39;45.64;85.71;;
51665;Laerm;37751;52.408;12.536;2022-10-16T08:56:17;59.64;47.85;71.68;;
51665;Laerm;37751;52.408;12.536;2022-10-16T08:58:45;75.44;48.93;94.57;;
51665;Laerm;37751;52.408;12.536;2022-10-16T09:01:19;58.30;45.06;68.17;;
51665;Laerm;37751;52.408;12.536;2022-10-16T09:06:57;61.11;49.37;81.27;;
51665;Laerm;37751;52.408;12.536;2022-10-16T09:09:41;58.43;46.04;67.12;;
51665;Laerm;37751;52.408;12.536;2022-10-16T09:12:32;61.05;47.38;74.06;;
51665;Laerm;37751;52.408;12.536;2022-10-16T09:15:27;69.33;49.07;93.65;;
51665;Laerm;37751;52.408;12.536;2022-10-16T09:21:00;58.12;47.55;73.29;;
51665;Laerm;37751;52.408;12.536;2022-10-16T09:23:34;59.59;48.38;70.54;;
51665;Laerm;37751;52.408;12.536;2022-10-16T09:26:02;58.70;46.75;69.25;;
51665;Laerm;37751;52.408;12.536;2022-10-16T09:28:30;59.32;51.33;68.16;;
51665;Laerm;37751;52.408;12.536;2022-10-16T09:30:57;59.54;49.23;69.60;;
51665;Laerm;37751;52.408;12.536;2022-10-16T09:33:28;59.65;45.99;70.65;;
51665;Laerm;37751;52.408;12.536;2022-10-16T09:35:56;61.08;50.16;70.32;;
51665;Laerm;37751;52.408;12.536;2022-10-16T09:38:30;58.89;48.95;67.71;;
51665;Laerm;37751;52.408;12.536;2022-10-16T09:40:58;73.19;50.31;91.79;;
51665;Laerm;37751;52.408;12.536;2022-10-16T09:49:00;58.60;48.03;70.25;;
51665;Laerm;37751;52.408;12.536;2022-10-16T09:51:27;59.90;49.70;71.45;;
51665;Laerm;37751;52.408;12.536;2022-10-16T09:53:57;60.38;48.12;73.97;;
51665;Laerm;37751;52.408;12.536;2022-10-16T09:56:29;58.48;48.56;68.82;;
51665;Laerm;37751;52.408;12.536;2022-10-16T09:58:58;58.44;45.60;71.63;;
51665;Laerm;37751;52.408;12.536;2022-10-16T10:01:31;65.35;47.61;83.87;;
51665;Laerm;37751;52.408;12.536;2022-10-16T10:04:01;64.75;44.43;81.03;;
51665;Laerm;37751;52.408;12.536;2022-10-16T10:09:05;59.86;48.84;70.80;;
51665;Laerm;37751;52.408;12.536;2022-10-16T10:12:00;59.41;48.38;73.55;;
51665;Laerm;37751;52.408;12.536;2022-10-16T10:14:37;59.19;46.29;73.35;;
51665;Laerm;37751;52.408;12.536;2022-10-16T10:19:44;58.71;46.09;69.99;;
51665;Laerm;37751;52.408;12.536;2022-10-16T10:31:24;58.79;45.99;69.22;;
51665;Laerm;37751;52.408;12.536;2022-10-16T10:36:20;61.31;48.49;78.40;;
51665;Laerm;37751;52.408;12.536;2022-10-16T10:41:56;61.27;46.31;73.48;;
51665;Laerm;37751;52.408;12.536;2022-10-16T10:47:50;67.26;45.85;92.80;;
51665;Laerm;37751;52.408;12.536;2022-10-16T10:53:18;63.04;50.64;82.18;;
51665;Laerm;37751;52.408;12.536;2022-10-16T10:59:06;58.50;49.25;69.98;;
51665;Laerm;37751;52.408;12.536;2022-10-16T11:01:47;60.00;48.11;76.31;;
51665;Laerm;37751;52.408;12.536;2022-10-16T11:07:25;60.74;44.70;74.78;;
51665;Laerm;37751;52.408;12.536;2022-10-16T11:09:58;59.70;49.42;69.63;;
51665;Laerm;37751;52.408;12.536;2022-10-16T11:12:36;73.32;50.02;91.71;;
51665;Laerm;37751;52.408;12.536;2022-10-16T11:15:17;60.76;49.09;72.21;;
51665;Laerm;37751;52.408;12.536;2022-10-16T11:17:50;75.78;51.68;94.02;;
51665;Laerm;37751;52.408;12.536;2022-10-16T11:20:25;64.36;50.79;87.51;;
51665;Laerm;37751;52.408;12.536;2022-10-16T11:25:32;60.14;49.69;71.60;;
51665;Laerm;37751;52.408;12.536;2022-10-16T11:28:14;61.97;49.34;77.60;;
51665;Laerm;37751;52.408;12.536;2022-10-16T11:30:56;60.48;48.41;73.46;;
51665;Laerm;37751;52.408;12.536;2022-10-16T11:33:31;61.24;48.51;72.70;;
51665;Laerm;37751;52.408;12.536;2022-10-16T11:36:01;58.89;49.39;68.77;;
51665;Laerm;37751;52.408;12.536;2022-10-16T11:38:58;62.57;49.56;75.66;;
51665;Laerm;37751;52.408;12.536;2022-10-16T11:41:41;61.39;50.46;74.16;;
51665;Laerm;37751;52.408;12.536;2022-10-16T11:53:28;59.33;50.24;67.90;;
51665;Laerm;37751;52.408;12.536;2022-10-16T11:55:56;60.52;50.88;70.83;;
51665;Laerm;37751;52.408;12.536;2022-10-16T11:58:28;60.22;48.55;68.51;;
51665;Laerm;37751;52.408;12.536;2022-10-16T12:08:51;60.03;48.05;70.72;;
51665;Laerm;37751;52.408;12.536;2022-10-16T12:16:50;60.70;51.57;68.37;;
51665;Laerm;37751;52.408;12.536;2022-10-16T12:19:18;60.43;51.21;70.86;;
51665;Laerm;37751;52.408;12.536;2022-10-16T12:21:45;61.87;50.83;71.43;;
51665;Laerm;37751;52.408;12.536;2022-10-16T12:24:31;62.32;51.63;82.54;;
51665;Laerm;37751;52.408;12.536;2022-10-16T12:26:58;59.55;47.24;72.83;;
51665;Laerm;37751;52.408;12.536;2022-10-16T12:29:34;59.44;46.44;70.15;;
51665;Laerm;37751;52.408;12.536;2022-10-16T12:32:03;59.73;46.54;69.35;;
51665;Laerm;37751;52.408;12.536;2022-10-16T12:34:41;61.86;50.38;86.09;;
51665;Laerm;37751;52.408;12.536;2022-10-16T12:37:26;61.93;48.75;72.41;;
51665;Laerm;37751;52.408;12.536;2022-10-16T12:39:54;63.01;45.56;75.51;;
51665;Laerm;37751;52.408;12.536;2022-10-16T12:42:39;60.78;49.10;72.03;;
51665;Laerm;37751;52.408;12.536;2022-10-16T12:45:27;68.68;48.73;88.76;;
51665;Laerm;37751;52.408;12.536;2022-10-16T12:47:55;61.18;49.76;73.90;;
51665;Laerm;37751;52.408;12.536;2022-10-16T12:50:37;58.48;48.89;70.69;;
51665;Laerm;37751;52.408;12.536;2022-10-16T12:53:26;60.46;48.97;70.94;;
51665;Laerm;37751;52.408;12.536;2022-10-16T13:04:24;66.03;49.68;81.09;;
51665;Laerm;37751;52.408;12.536;2022-10-16T13:07:03;60.98;47.36;70.45;;
51665;Laerm;37751;52.408;12.536;2022-10-16T13:09:47;62.45;50.78;82.25;;
51665;Laerm;37751;52.408;12.536;2022-10-16T13:15:25;60.94;48.55;74.13;;
51665;Laerm;37751;52.408;12.536;2022-10-16T13:18:11;61.41;51.33;71.70;;
51665;Laerm;37751;52.408;12.536;2022-10-16T13:21:07;62.35;48.05;75.86;;
51665;Laerm;37751;52.408;12.536;2022-10-16T13:23:52;60.98;51.51;76.40;;
51665;Laerm;37751;52.408;12.536;2022-10-16T13:26:30;61.30;47.81;76.47;;
51665;Laerm;37751;52.408;12.536;2022-10-16T13:29:01;59.80;48.77;70.79;;
51665;Laerm;37751;52.408;12.536;2022-10-16T13:31:29;60.83;47.03;77.89;;
51665;Laerm;37751;52.408;12.536;2022-10-16T13:33:58;60.70;48.82;71.34;;
51665;Laerm;37751;52.408;12.536;2022-10-16T13:36:50;59.51;45.88;68.72;;
51665;Laerm;37751;52.408;12.536;2022-10-16T13:39:23;60.81;48.71;70.08;;
51665;Laerm;37751;52.408;12.536;2022-10-16T13:42:10;60.85;49.72;72.55;;
51665;Laerm;37751;52.408;12.536;2022-10-16T13:44:46;60.60;49.89;70.24;;
51665;Laerm;37751;52.408;12.536;2022-10-16T13:47:22;58.03;47.34;66.58;;
51665;Laerm;37751;52.408;12.536;2022-10-16T13:50:05;61.55;45.72;72.24;;
51665;Laerm;37751;52.408;12.536;2022-10-16T13:52:32;62.70;49.40;74.66;;
51665;Laerm;37751;52.408;12.536;2022-10-16T13:54:58;64.43;48.91;82.49;;
51665;Laerm;37751;52.408;12.536;2022-10-16T13:57:28;77.05;48.98;95.35;;
51665;Laerm;37751;52.408;12.536;2022-10-16T13:59:54;60.40;49.65;71.96;;
51665;Laerm;37751;52.408;12.536;2022-10-16T14:02:26;62.84;49.69;75.50;;
51665;Laerm;37751;52.408;12.536;2022-10-16T14:04:56;61.37;49.69;73.20;;
51665;Laerm;37751;52.408;12.536;2022-10-16T14:07:27;60.04;49.05;72.79;;
51665;Laerm;37751;52.408;12.536;2022-10-16T14:09:55;57.87;49.69;67.78;;
51665;Laerm;37751;52.408;12.536;2022-10-16T14:12:22;60.81;47.43;72.18;;
51665;Laerm;37751;52.408;12.536;2022-10-16T14:14:54;64.05;48.62;87.00;;
51665;Laerm;37751;52.408;12.536;2022-10-16T14:17:32;61.62;48.41;83.17;;
51665;Laerm;37751;52.408;12.536;2022-10-16T14:20:05;62.64;49.03;85.26;;
51665;Laerm;37751;52.408;12.536;2022-10-16T14:22:33;62.31;49.56;88.16;;
51665;Laerm;37751;52.408;12.536;2022-10-16T14:25:08;60.26;48.36;69.94;;
51665;Laerm;37751;52.408;12.536;2022-10-16T14:27:57;59.69;47.41;71.18;;
51665;Laerm;37751;52.408;12.536;2022-10-16T14:30:26;71.47;48.71;93.81;;
51665;Laerm;37751;52.408;12.536;2022-10-16T14:32:58;60.89;50.49;68.52;;
51665;Laerm;37751;52.408;12.536;2022-10-16T14:35:28;61.10;46.34;70.03;;
51665;Laerm;37751;52.408;12.536;2022-10-16T14:37:56;61.23;48.86;72.99;;
51665;Laerm;37751;52.408;12.536;2022-10-16T14:40:26;61.16;48.41;74.38;;
51665;Laerm;37751;52.408;12.536;2022-10-16T14:42:53;59.87;48.72;73.59;;
51665;Laerm;37751;52.408;12.536;2022-10-16T14:45:29;60.26;48.29;70.98;;
51665;Laerm;37751;52.408;12.536;2022-10-16T14:47:58;59.35;46.97;73.72;;
51665;Laerm;37751;52.408;12.536;2022-10-16T14:50:25;60.44;49.45;72.64;;
51665;Laerm;37751;52.408;12.536;2022-10-16T14:52:51;60.83;44.22;80.24;;
51665;Laerm;37751;52.408;12.536;2022-10-16T14:55:18;74.93;52.46;94.27;;
51665;Laerm;37751;52.408;12.536;2022-10-16T14:57:46;59.12;48.65;67.71;;
51665;Laerm;37751;52.408;12.536;2022-10-16T15:00:17;59.46;44.18;76.29;;
51665;Laerm;37751;52.408;12.536;2022-10-16T15:02:44;60.89;50.62;72.17;;
51665;Laerm;37751;52.408;12.536;2022-10-16T15:05:20;59.00;46.40;69.93;;
51665;Laerm;37751;52.408;12.536;2022-10-16T15:07:48;59.02;46.87;70.48;;
51665;Laerm;37751;52.408;12.536;2022-10-16T15:10:18;61.27;47.18;71.18;;
51665;Laerm;37751;52.408;12.536;2022-10-16T15:12:45;58.53;46.28;69.29;;
51665;Laerm;37751;52.408;12.536;2022-10-16T15:15:40;59.46;46.07;68.84;;
51665;Laerm;37751;52.408;12.536;2022-10-16T15:18:08;59.65;49.23;68.30;;
51665;Laerm;37751;52.408;12.536;2022-10-16T15:20:36;58.97;48.02;77.57;;
51665;Laerm;37751;52.408;12.536;2022-10-16T15:23:05;62.75;48.79;80.04;;
51665;Laerm;37751;52.408;12.536;2022-10-16T15:25:43;58.78;46.16;79.43;;
51665;Laerm;37751;52.408;12.536;2022-10-16T15:28:11;62.00;49.48;76.99;;
51665;Laerm;37751;52.408;12.536;2022-10-16T15:30:38;59.55;47.84;67.11;;